This demonstration page uses our WeatherBlox Daily Observations layout. Learn more.

Left ArrowRight Arrow

39.12711, -84.51439

Hourly Observations for March 3, 2021

Temp ( °F °C ) Dew Point ( °F °C ) Humidity (%) Winds ( mph kmh ) Pressure ( in mb ) Visibility ( mi km ) Precip ( " mm )
12:53 am 00:53 Clear 30 -1.1 25 -3.9 82 82 Calm 30.11 1020 10 16.0934 0 0
1:53 am 01:53 Clear 29 -1.7 25 -3.9 85 85 Calm 30.11 1020 10 16.0934 0 0
2:53 am 02:53 Clear 28 -2.2 24 -4.4 85 85 Calm 30.1 1019 10 16.0934 0 0
3:53 am 03:53 Clear 27 -2.8 24 -4.4 89 89 Calm 30.09 1019 10 16.0934 0 0
4:53 am 04:53 Clear 26 -3.3 23 -5 88 88 Calm 30.09 1019 10 16.0934 0 0
5:53 am 05:53 Clear 26 -3.3 22 -5.6 84 84 S 3 6 30.09 1019 10 16.0934 0 0
6:53 am 06:53 Clear 26 -3.3 23 -5 88 88 S 5 7 30.1 1019 10 16.0934 0 0
7:53 am 07:53 Sunny 28 -2.2 26 -3.3 92 92 S 5 7 30.11 1020 10 16.0934 0 0
8:53 am 08:53 Sunny 34 1.1 27 -2.8 76 76 SSW 6 9 30.11 1020 10 16.0934 0 0
9:53 am 09:53 Sunny 42 5.6 26 -3.3 53 53 S 7 11 30.1 1019 10 16.0934 0 0
10:53 am 10:53 Sunny 51 10.6 29 -1.7 43 43 SSW 8 13 30.07 1018 10 16.0934 0 0
11:53 am 11:53 Sunny 54 12.2 29 -1.7 38 38 SW 13 20 30.05 1018 10 16.0934 0 0
12:53 pm 12:53 Sunny 57 13.9 30 -1.1 36 36 SSW 10 17 30.03 1017 10 16.0934 0 0
1:53 pm 13:53 Sunny 61 16.1 31 -0.6 32 32 WSW 14 22 30 1016 10 16.0934 0 0
2:53 pm 14:53 Sunny 62 16.7 31 -0.6 31 31 SSW 15 24 29.98 1015 10 16.0934 0 0
3:53 pm 15:53 Sunny 63 17.2 30 -1.1 29 29 SSW 14 22 29.96 1015 10 16.0934 0 0
4:53 pm 16:53 Sunny 63 17.2 31 -0.6 30 30 SW 12 19 29.96 1015 10 16.0934 0 0
5:53 pm 17:53 Sunny 60 15.6 30 -1.1 32 32 WSW 10 17 29.98 1015 10 16.0934 0 0
6:53 pm 18:53 Clear 54 12.2 29 -1.7 38 38 WSW 8 13 30 1016 10 16.0934 0 0
7:53 pm 19:53 Clear 55 12.8 30 -1.1 38 38 VRB 3 6 30.02 1017 10 16.0934 0 0
8:53 pm 20:53 Clear 47 8.3 32 0 56 56 N 3 6 30.03 1017 10 16.0934 0 0
9:53 pm 21:53 Clear 43 6.1 34 1.1 71 71 Calm 30.05 1018 10 16.0934 0 0
10:53 pm 22:53 Clear 39 3.9 34 1.1 82 82 SSW 3 6 30.06 1018 10 16.0934 0 0
11:53 pm 23:53 Clear 39 3.9 36 2.2 89 89 Calm 30.08 1019 10 16.0934 0 0

Powered by AerisWeather